sensor_id;sensor_type;location;lat;lon;timestamp;P1;durP1;ratioP1;P2;durP2;ratioP2
1180;SDS011;579;52.046;8.532;2023-05-24T00:00:50;0.10;;;0.10;;
1180;SDS011;579;52.046;8.532;2023-05-24T00:03:18;0.20;;;0.20;;
1180;SDS011;579;52.046;8.532;2023-05-24T00:10:50;0.20;;;0.20;;
1180;SDS011;579;52.046;8.532;2023-05-24T00:13:17;0.20;;;0.20;;
1180;SDS011;579;52.046;8.532;2023-05-24T00:15:43;0.10;;;0.10;;
1180;SDS011;579;52.046;8.532;2023-05-24T00:18:09;0.10;;;0.10;;
1180;SDS011;579;52.046;8.532;2023-05-24T00:20:35;0.10;;;0.10;;
1180;SDS011;579;52.046;8.532;2023-05-24T00:23:02;0.10;;;0.10;;
1180;SDS011;579;52.046;8.532;2023-05-24T00:25:28;0.20;;;0.20;;
1180;SDS011;579;52.046;8.532;2023-05-24T00:27:55;0.10;;;0.10;;
1180;SDS011;579;52.046;8.532;2023-05-24T00:30:41;0.20;;;0.20;;
1180;SDS011;579;52.046;8.532;2023-05-24T00:33:07;0.20;;;0.20;;
1180;SDS011;579;52.046;8.532;2023-05-24T00:35:33;0.20;;;0.20;;
1180;SDS011;579;52.046;8.532;2023-05-24T00:38:00;0.22;;;0.22;;
1180;SDS011;579;52.046;8.532;2023-05-24T00:40:26;0.30;;;0.30;;
1180;SDS011;579;52.046;8.532;2023-05-24T00:42:52;0.20;;;0.20;;
1180;SDS011;579;52.046;8.532;2023-05-24T00:45:18;0.20;;;0.20;;
1180;SDS011;579;52.046;8.532;2023-05-24T00:47:46;0.20;;;0.20;;
1180;SDS011;579;52.046;8.532;2023-05-24T00:55:17;0.10;;;0.10;;
1180;SDS011;579;52.046;8.532;2023-05-24T00:57:44;0.10;;;0.10;;
1180;SDS011;579;52.046;8.532;2023-05-24T01:00:10;0.10;;;0.10;;
1180;SDS011;579;52.046;8.532;2023-05-24T01:02:37;0.20;;;0.20;;
1180;SDS011;579;52.046;8.532;2023-05-24T01:05:04;0.10;;;0.10;;
1180;SDS011;579;52.046;8.532;2023-05-24T01:07:32;0.10;;;0.10;;
1180;SDS011;579;52.046;8.532;2023-05-24T01:10:13;0.10;;;0.10;;
1180;SDS011;579;52.046;8.532;2023-05-24T01:15:47;0.10;;;0.10;;
1180;SDS011;579;52.046;8.532;2023-05-24T01:18:24;0.10;;;0.10;;
1180;SDS011;579;52.046;8.532;2023-05-24T01:20:58;0.10;;;0.10;;
1180;SDS011;579;52.046;8.532;2023-05-24T01:23:38;0.20;;;0.20;;
1180;SDS011;579;52.046;8.532;2023-05-24T01:26:13;0.10;;;0.10;;
1180;SDS011;579;52.046;8.532;2023-05-24T01:28:46;0.20;;;0.20;;
1180;SDS011;579;52.046;8.532;2023-05-24T01:31:14;0.20;;;0.20;;
1180;SDS011;579;52.046;8.532;2023-05-24T01:37:43;0.20;;;0.20;;
1180;SDS011;579;52.046;8.532;2023-05-24T01:40:09;0.20;;;0.20;;
1180;SDS011;579;52.046;8.532;2023-05-24T01:42:39;0.20;;;0.20;;
1180;SDS011;579;52.046;8.532;2023-05-24T01:45:11;0.20;;;0.20;;
1180;SDS011;579;52.046;8.532;2023-05-24T01:47:46;0.20;;;0.20;;
1180;SDS011;579;52.046;8.532;2023-05-24T01:50:27;0.20;;;0.20;;
1180;SDS011;579;52.046;8.532;2023-05-24T01:52:57;0.20;;;0.20;;
1180;SDS011;579;52.046;8.532;2023-05-24T02:00:32;0.10;;;0.10;;
1180;SDS011;579;52.046;8.532;2023-05-24T02:02:59;0.10;;;0.10;;
1180;SDS011;579;52.046;8.532;2023-05-24T02:05:27;0.20;;;0.20;;
1180;SDS011;579;52.046;8.532;2023-05-24T02:07:53;0.10;;;0.10;;
1180;SDS011;579;52.046;8.532;2023-05-24T02:10:19;0.20;;;0.20;;
1180;SDS011;579;52.046;8.532;2023-05-24T02:12:45;0.20;;;0.20;;
1180;SDS011;579;52.046;8.532;2023-05-24T02:15:12;0.20;;;0.20;;
1180;SDS011;579;52.046;8.532;2023-05-24T02:17:39;0.20;;;0.20;;
1180;SDS011;579;52.046;8.532;2023-05-24T02:24:42;0.10;;;0.10;;
1180;SDS011;579;52.046;8.532;2023-05-24T02:27:08;0.10;;;0.10;;
1180;SDS011;579;52.046;8.532;2023-05-24T02:29:34;0.10;;;0.10;;
1180;SDS011;579;52.046;8.532;2023-05-24T02:32:01;0.10;;;0.10;;
1180;SDS011;579;52.046;8.532;2023-05-24T02:34:27;0.20;;;0.20;;
1180;SDS011;579;52.046;8.532;2023-05-24T02:36:53;0.10;;;0.10;;
1180;SDS011;579;52.046;8.532;2023-05-24T02:39:19;0.20;;;0.20;;
1180;SDS011;579;52.046;8.532;2023-05-24T02:41:46;0.10;;;0.10;;
1180;SDS011;579;52.046;8.532;2023-05-24T02:48:41;0.20;;;0.20;;
1180;SDS011;579;52.046;8.532;2023-05-24T02:51:08;0.10;;;0.10;;
1180;SDS011;579;52.046;8.532;2023-05-24T02:53:34;0.20;;;0.20;;
1180;SDS011;579;52.046;8.532;2023-05-24T02:56:00;0.38;;;0.38;;
1180;SDS011;579;52.046;8.532;2023-05-24T02:58:26;0.30;;;0.30;;
1180;SDS011;579;52.046;8.532;2023-05-24T03:00:54;0.20;;;0.20;;
1180;SDS011;579;52.046;8.532;2023-05-24T03:03:20;0.40;;;0.40;;
1180;SDS011;579;52.046;8.532;2023-05-24T03:10:52;0.20;;;0.20;;
1180;SDS011;579;52.046;8.532;2023-05-24T03:13:18;0.20;;;0.20;;
1180;SDS011;579;52.046;8.532;2023-05-24T03:15:44;0.20;;;0.20;;
1180;SDS011;579;52.046;8.532;2023-05-24T03:18:10;0.20;;;0.20;;
1180;SDS011;579;52.046;8.532;2023-05-24T03:20:37;0.30;;;0.30;;
1180;SDS011;579;52.046;8.532;2023-05-24T03:23:03;0.30;;;0.30;;
1180;SDS011;579;52.046;8.532;2023-05-24T03:25:29;0.73;;;0.73;;
1180;SDS011;579;52.046;8.532;2023-05-24T03:30:35;0.30;;;0.30;;
1180;SDS011;579;52.046;8.532;2023-05-24T03:33:01;0.30;;;0.30;;
1180;SDS011;579;52.046;8.532;2023-05-24T03:35:27;0.45;;;0.45;;
1180;SDS011;579;52.046;8.532;2023-05-24T03:37:54;0.30;;;0.30;;
1180;SDS011;579;52.046;8.532;2023-05-24T03:40:20;0.40;;;0.40;;
1180;SDS011;579;52.046;8.532;2023-05-24T03:42:46;0.60;;;0.60;;
1180;SDS011;579;52.046;8.532;2023-05-24T03:45:13;0.50;;;0.50;;
1180;SDS011;579;52.046;8.532;2023-05-24T03:52:43;0.20;;;0.20;;
1180;SDS011;579;52.046;8.532;2023-05-24T03:55:11;0.30;;;0.30;;
1180;SDS011;579;52.046;8.532;2023-05-24T03:57:38;0.30;;;0.30;;
1180;SDS011;579;52.046;8.532;2023-05-24T04:00:06;0.30;;;0.30;;
1180;SDS011;579;52.046;8.532;2023-05-24T04:02:34;0.20;;;0.20;;
1180;SDS011;579;52.046;8.532;2023-05-24T04:05:02;0.30;;;0.30;;
1180;SDS011;579;52.046;8.532;2023-05-24T04:07:28;0.40;;;0.40;;
1180;SDS011;579;52.046;8.532;2023-05-24T04:14:52;0.40;;;0.40;;
1180;SDS011;579;52.046;8.532;2023-05-24T04:17:18;0.40;;;0.40;;
1180;SDS011;579;52.046;8.532;2023-05-24T04:19:48;0.20;;;0.20;;
1180;SDS011;579;52.046;8.532;2023-05-24T04:22:15;0.20;;;0.20;;
1180;SDS011;579;52.046;8.532;2023-05-24T04:24:42;0.10;;;0.10;;
1180;SDS011;579;52.046;8.532;2023-05-24T04:27:08;0.20;;;0.20;;
1180;SDS011;579;52.046;8.532;2023-05-24T04:29:35;0.20;;;0.20;;
1180;SDS011;579;52.046;8.532;2023-05-24T04:37:07;0.20;;;0.20;;
1180;SDS011;579;52.046;8.532;2023-05-24T04:39:33;0.20;;;0.20;;
1180;SDS011;579;52.046;8.532;2023-05-24T04:41:59;0.20;;;0.20;;
1180;SDS011;579;52.046;8.532;2023-05-24T04:44:25;0.20;;;0.20;;
1180;SDS011;579;52.046;8.532;2023-05-24T04:46:52;0.17;;;0.17;;
1180;SDS011;579;52.046;8.532;2023-05-24T04:49:18;0.30;;;0.30;;
1180;SDS011;579;52.046;8.532;2023-05-24T04:51:45;0.65;;;0.65;;
1180;SDS011;579;52.046;8.532;2023-05-24T04:58:43;0.70;;;0.70;;
1180;SDS011;579;52.046;8.532;2023-05-24T05:01:10;0.35;;;0.35;;
1180;SDS011;579;52.046;8.532;2023-05-24T05:03:36;0.40;;;0.40;;
1180;SDS011;579;52.046;8.532;2023-05-24T05:06:03;0.40;;;0.40;;
1180;SDS011;579;52.046;8.532;2023-05-24T05:08:29;0.70;;;0.70;;
1180;SDS011;579;52.046;8.532;2023-05-24T05:10:56;0.40;;;0.40;;
1180;SDS011;579;52.046;8.532;2023-05-24T05:13:22;0.30;;;0.30;;
1180;SDS011;579;52.046;8.532;2023-05-24T05:21:11;0.50;;;0.50;;
1180;SDS011;579;52.046;8.532;2023-05-24T05:23:37;0.52;;;0.52;;
1180;SDS011;579;52.046;8.532;2023-05-24T05:26:04;0.60;;;0.60;;
1180;SDS011;579;52.046;8.532;2023-05-24T05:28:31;0.57;;;0.57;;
1180;SDS011;579;52.046;8.532;2023-05-24T05:30:57;0.60;;;0.60;;
1180;SDS011;579;52.046;8.532;2023-05-24T05:33:23;0.60;;;0.60;;
1180;SDS011;579;52.046;8.532;2023-05-24T05:35:50;0.52;;;0.52;;
1180;SDS011;579;52.046;8.532;2023-05-24T05:43:21;0.65;;;0.65;;
1180;SDS011;579;52.046;8.532;2023-05-24T05:45:49;0.50;;;0.50;;
1180;SDS011;579;52.046;8.532;2023-05-24T05:48:15;0.35;;;0.35;;
1180;SDS011;579;52.046;8.532;2023-05-24T05:50:41;0.40;;;0.40;;
1180;SDS011;579;52.046;8.532;2023-05-24T05:53:08;0.50;;;0.50;;
1180;SDS011;579;52.046;8.532;2023-05-24T05:55:34;0.40;;;0.40;;
1180;SDS011;579;52.046;8.532;2023-05-24T05:58:01;0.80;;;0.80;;
1180;SDS011;579;52.046;8.532;2023-05-24T06:07:14;0.40;;;0.40;;
1180;SDS011;579;52.046;8.532;2023-05-24T06:09:40;0.57;;;0.57;;
1180;SDS011;579;52.046;8.532;2023-05-24T06:12:07;0.73;;;0.73;;
1180;SDS011;579;52.046;8.532;2023-05-24T06:14:33;0.50;;;0.50;;
1180;SDS011;579;52.046;8.532;2023-05-24T06:17:02;0.60;;;0.60;;
1180;SDS011;579;52.046;8.532;2023-05-24T06:19:29;0.40;;;0.40;;
1180;SDS011;579;52.046;8.532;2023-05-24T06:21:56;0.50;;;0.50;;
1180;SDS011;579;52.046;8.532;2023-05-24T06:30:55;0.60;;;0.60;;
1180;SDS011;579;52.046;8.532;2023-05-24T06:33:21;0.70;;;0.70;;
1180;SDS011;579;52.046;8.532;2023-05-24T06:35:48;0.55;;;0.55;;
1180;SDS011;579;52.046;8.532;2023-05-24T06:38:14;0.40;;;0.40;;
1180;SDS011;579;52.046;8.532;2023-05-24T06:40:41;0.50;;;0.50;;
1180;SDS011;579;52.046;8.532;2023-05-24T06:43:08;0.70;;;0.70;;
1180;SDS011;579;52.046;8.532;2023-05-24T06:45:34;0.70;;;0.70;;
1180;SDS011;579;52.046;8.532;2023-05-24T06:48:01;0.60;;;0.60;;
1180;SDS011;579;52.046;8.532;2023-05-24T06:53:15;0.40;;;0.40;;
1180;SDS011;579;52.046;8.532;2023-05-24T06:55:41;0.30;;;0.30;;
1180;SDS011;579;52.046;8.532;2023-05-24T06:58:07;0.40;;;0.40;;
1180;SDS011;579;52.046;8.532;2023-05-24T07:00:38;0.40;;;0.40;;
1180;SDS011;579;52.046;8.532;2023-05-24T07:03:05;0.30;;;0.30;;
1180;SDS011;579;52.046;8.532;2023-05-24T07:05:31;0.55;;;0.55;;
1180;SDS011;579;52.046;8.532;2023-05-24T07:07:57;0.50;;;0.50;;
1180;SDS011;579;52.046;8.532;2023-05-24T07:13:22;0.50;;;0.50;;
1180;SDS011;579;52.046;8.532;2023-05-24T07:15:48;0.50;;;0.50;;
1180;SDS011;579;52.046;8.532;2023-05-24T07:18:15;0.38;;;0.38;;
1180;SDS011;579;52.046;8.532;2023-05-24T07:20:41;0.10;;;0.10;;
1180;SDS011;579;52.046;8.532;2023-05-24T07:23:08;0.00;;;0.00;;
1180;SDS011;579;52.046;8.532;2023-05-24T07:25:34;0.00;;;0.00;;
1180;SDS011;579;52.046;8.532;2023-05-24T07:28:01;0.00;;;0.00;;
1180;SDS011;579;52.046;8.532;2023-05-24T07:35:26;0.10;;;0.10;;
1180;SDS011;579;52.046;8.532;2023-05-24T07:37:53;0.10;;;0.10;;
1180;SDS011;579;52.046;8.532;2023-05-24T07:40:20;0.10;;;0.10;;
1180;SDS011;579;52.046;8.532;2023-05-24T07:42:47;0.10;;;0.10;;
1180;SDS011;579;52.046;8.532;2023-05-24T07:45:13;0.10;;;0.10;;
1180;SDS011;579;52.046;8.532;2023-05-24T07:47:39;0.10;;;0.10;;
1180;SDS011;579;52.046;8.532;2023-05-24T07:50:06;0.10;;;0.10;;
1180;SDS011;579;52.046;8.532;2023-05-24T07:57:38;0.10;;;0.10;;
1180;SDS011;579;52.046;8.532;2023-05-24T08:00:05;0.10;;;0.10;;
1180;SDS011;579;52.046;8.532;2023-05-24T08:02:38;0.50;;;0.50;;
1180;SDS011;579;52.046;8.532;2023-05-24T08:05:05;0.55;;;0.55;;
1180;SDS011;579;52.046;8.532;2023-05-24T08:07:34;1.02;;;1.02;;
1180;SDS011;579;52.046;8.532;2023-05-24T08:10:00;0.70;;;0.70;;
1180;SDS011;579;52.046;8.532;2023-05-24T08:12:27;0.80;;;0.80;;
1180;SDS011;579;52.046;8.532;2023-05-24T08:14:55;0.70;;;0.70;;
1180;SDS011;579;52.046;8.532;2023-05-24T08:21:19;0.93;;;0.93;;
1180;SDS011;579;52.046;8.532;2023-05-24T08:23:46;0.60;;;0.60;;
1180;SDS011;579;52.046;8.532;2023-05-24T08:26:12;0.60;;;0.60;;
1180;SDS011;579;52.046;8.532;2023-05-24T08:28:40;0.60;;;0.60;;
1180;SDS011;579;52.046;8.532;2023-05-24T08:31:07;0.50;;;0.50;;
1180;SDS011;579;52.046;8.532;2023-05-24T08:33:33;0.60;;;0.60;;
1180;SDS011;579;52.046;8.532;2023-05-24T08:35:59;0.75;;;0.75;;
1180;SDS011;579;52.046;8.532;2023-05-24T08:43:41;0.70;;;0.70;;
1180;SDS011;579;52.046;8.532;2023-05-24T08:46:08;0.60;;;0.60;;
1180;SDS011;579;52.046;8.532;2023-05-24T08:48:38;0.95;;;0.95;;
1180;SDS011;579;52.046;8.532;2023-05-24T08:51:10;0.75;;;0.75;;
1180;SDS011;579;52.046;8.532;2023-05-24T08:53:36;0.85;;;0.85;;
1180;SDS011;579;52.046;8.532;2023-05-24T08:56:04;0.80;;;0.80;;
1180;SDS011;579;52.046;8.532;2023-05-24T08:58:32;0.70;;;0.70;;
1180;SDS011;579;52.046;8.532;2023-05-24T09:03:45;0.40;;;0.40;;
1180;SDS011;579;52.046;8.532;2023-05-24T09:06:12;0.70;;;0.70;;
1180;SDS011;579;52.046;8.532;2023-05-24T09:08:42;0.45;;;0.45;;
1180;SDS011;579;52.046;8.532;2023-05-24T09:11:09;0.55;;;0.55;;
1180;SDS011;579;52.046;8.532;2023-05-24T09:13:36;0.55;;;0.55;;
1180;SDS011;579;52.046;8.532;2023-05-24T09:16:04;0.50;;;0.50;;
1180;SDS011;579;52.046;8.532;2023-05-24T09:18:31;0.45;;;0.45;;
1180;SDS011;579;52.046;8.532;2023-05-24T09:23:37;0.40;;;0.40;;
1180;SDS011;579;52.046;8.532;2023-05-24T09:26:05;0.75;;;0.75;;
1180;SDS011;579;52.046;8.532;2023-05-24T09:28:36;0.77;;;0.77;;
1180;SDS011;579;52.046;8.532;2023-05-24T09:31:03;0.63;;;0.63;;
1180;SDS011;579;52.046;8.532;2023-05-24T09:33:29;0.75;;;0.75;;
1180;SDS011;579;52.046;8.532;2023-05-24T09:35:57;1.00;;;1.00;;
1180;SDS011;579;52.046;8.532;2023-05-24T09:38:24;0.88;;;0.88;;
1180;SDS011;579;52.046;8.532;2023-05-24T09:46:03;0.60;;;0.60;;
1180;SDS011;579;52.046;8.532;2023-05-24T09:48:30;0.75;;;0.75;;
1180;SDS011;579;52.046;8.532;2023-05-24T09:50:58;0.90;;;0.90;;
1180;SDS011;579;52.046;8.532;2023-05-24T09:53:29;0.60;;;0.60;;
1180;SDS011;579;52.046;8.532;2023-05-24T09:55:56;0.80;;;0.80;;
1180;SDS011;579;52.046;8.532;2023-05-24T09:58:22;0.65;;;0.65;;
1180;SDS011;579;52.046;8.532;2023-05-24T10:01:02;0.82;;;0.82;;
1180;SDS011;579;52.046;8.532;2023-05-24T10:03:31;0.63;;;0.63;;
1180;SDS011;579;52.046;8.532;2023-05-24T10:11:02;0.50;;;0.50;;
1180;SDS011;579;52.046;8.532;2023-05-24T10:13:29;0.70;;;0.70;;
1180;SDS011;579;52.046;8.532;2023-05-24T10:15:57;0.65;;;0.65;;
1180;SDS011;579;52.046;8.532;2023-05-24T10:18:23;0.60;;;0.60;;
1180;SDS011;579;52.046;8.532;2023-05-24T10:20:50;0.50;;;0.50;;
1180;SDS011;579;52.046;8.532;2023-05-24T10:23:19;0.50;;;0.50;;
1180;SDS011;579;52.046;8.532;2023-05-24T10:25:48;0.52;;;0.52;;
1180;SDS011;579;52.046;8.532;2023-05-24T10:28:29;0.70;;;0.70;;
1180;SDS011;579;52.046;8.532;2023-05-24T10:36:05;0.60;;;0.60;;
1180;SDS011;579;52.046;8.532;2023-05-24T10:38:36;0.50;;;0.50;;
1180;SDS011;579;52.046;8.532;2023-05-24T10:41:04;0.80;;;0.80;;
1180;SDS011;579;52.046;8.532;2023-05-24T10:43:32;0.68;;;0.68;;
1180;SDS011;579;52.046;8.532;2023-05-24T10:45:58;0.80;;;0.80;;
1180;SDS011;579;52.046;8.532;2023-05-24T10:48:33;0.90;;;0.90;;
1180;SDS011;579;52.046;8.532;2023-05-24T10:51:02;0.73;;;0.73;;
1180;SDS011;579;52.046;8.532;2023-05-24T10:56:59;0.73;;;0.73;;
1180;SDS011;579;52.046;8.532;2023-05-24T10:59:29;0.60;;;0.60;;
1180;SDS011;579;52.046;8.532;2023-05-24T11:02:03;0.70;;;0.70;;
1180;SDS011;579;52.046;8.532;2023-05-24T11:04:36;0.50;;;0.50;;
1180;SDS011;579;52.046;8.532;2023-05-24T11:07:04;0.60;;;0.60;;
1180;SDS011;579;52.046;8.532;2023-05-24T11:09:33;0.60;;;0.60;;
1180;SDS011;579;52.046;8.532;2023-05-24T11:12:02;0.60;;;0.60;;
1180;SDS011;579;52.046;8.532;2023-05-24T11:19:37;0.68;;;0.68;;
1180;SDS011;579;52.046;8.532;2023-05-24T11:22:11;1.10;;;1.10;;
1180;SDS011;579;52.046;8.532;2023-05-24T11:24:39;0.80;;;0.80;;
1180;SDS011;579;52.046;8.532;2023-05-24T11:27:06;0.80;;;0.80;;
1180;SDS011;579;52.046;8.532;2023-05-24T11:29:38;0.73;;;0.73;;
1180;SDS011;579;52.046;8.532;2023-05-24T11:32:06;0.70;;;0.70;;
1180;SDS011;579;52.046;8.532;2023-05-24T11:34:33;0.80;;;0.80;;
1180;SDS011;579;52.046;8.532;2023-05-24T11:42:05;0.90;;;0.90;;
1180;SDS011;579;52.046;8.532;2023-05-24T11:44:33;0.80;;;0.80;;
1180;SDS011;579;52.046;8.532;2023-05-24T11:47:02;0.60;;;0.60;;
1180;SDS011;579;52.046;8.532;2023-05-24T11:49:31;1.05;;;1.05;;
1180;SDS011;579;52.046;8.532;2023-05-24T11:51:57;0.70;;;0.70;;
1180;SDS011;579;52.046;8.532;2023-05-24T11:54:25;0.80;;;0.80;;
1180;SDS011;579;52.046;8.532;2023-05-24T11:56:52;0.90;;;0.90;;
1180;SDS011;579;52.046;8.532;2023-05-24T12:01:59;0.90;;;0.90;;
1180;SDS011;579;52.046;8.532;2023-05-24T12:04:27;0.70;;;0.70;;
1180;SDS011;579;52.046;8.532;2023-05-24T12:06:55;0.60;;;0.60;;
1180;SDS011;579;52.046;8.532;2023-05-24T12:09:21;0.95;;;0.95;;
1180;SDS011;579;52.046;8.532;2023-05-24T12:11:48;0.77;;;0.77;;
1180;SDS011;579;52.046;8.532;2023-05-24T12:14:16;0.60;;;0.60;;
1180;SDS011;579;52.046;8.532;2023-05-24T12:16:44;0.70;;;0.70;;
1180;SDS011;579;52.046;8.532;2023-05-24T12:23:11;0.90;;;0.90;;
1180;SDS011;579;52.046;8.532;2023-05-24T12:25:39;0.68;;;0.68;;
1180;SDS011;579;52.046;8.532;2023-05-24T12:28:05;0.50;;;0.50;;
1180;SDS011;579;52.046;8.532;2023-05-24T12:30:32;0.93;;;0.93;;
1180;SDS011;579;52.046;8.532;2023-05-24T12:32:58;0.80;;;0.80;;
1180;SDS011;579;52.046;8.532;2023-05-24T12:35:24;1.13;;;1.13;;
1180;SDS011;579;52.046;8.532;2023-05-24T12:37:56;0.82;;;0.82;;
1180;SDS011;579;52.046;8.532;2023-05-24T12:43:11;0.65;;;0.65;;
1180;SDS011;579;52.046;8.532;2023-05-24T12:45:38;0.60;;;0.60;;
1180;SDS011;579;52.046;8.532;2023-05-24T12:48:05;0.50;;;0.50;;
1180;SDS011;579;52.046;8.532;2023-05-24T12:50:32;0.60;;;0.60;;
1180;SDS011;579;52.046;8.532;2023-05-24T12:52:59;0.60;;;0.60;;
1180;SDS011;579;52.046;8.532;2023-05-24T12:55:25;0.75;;;0.75;;
1180;SDS011;579;52.046;8.532;2023-05-24T12:57:53;0.60;;;0.60;;
1180;SDS011;579;52.046;8.532;2023-05-24T13:03:14;0.47;;;0.47;;
1180;SDS011;579;52.046;8.532;2023-05-24T13:05:40;0.40;;;0.40;;
1180;SDS011;579;52.046;8.532;2023-05-24T13:08:07;0.45;;;0.45;;
1180;SDS011;579;52.046;8.532;2023-05-24T13:10:33;0.50;;;0.50;;
1180;SDS011;579;52.046;8.532;2023-05-24T13:12:59;0.55;;;0.55;;
1180;SDS011;579;52.046;8.532;2023-05-24T13:15:26;0.65;;;0.65;;
1180;SDS011;579;52.046;8.532;2023-05-24T13:17:52;0.63;;;0.63;;
1180;SDS011;579;52.046;8.532;2023-05-24T13:20:19;0.70;;;0.70;;
1180;SDS011;579;52.046;8.532;2023-05-24T13:27:50;0.70;;;0.70;;
1180;SDS011;579;52.046;8.532;2023-05-24T13:30:16;0.57;;;0.57;;
1180;SDS011;579;52.046;8.532;2023-05-24T13:32:42;0.47;;;0.47;;
1180;SDS011;579;52.046;8.532;2023-05-24T13:35:09;0.43;;;0.43;;
1180;SDS011;579;52.046;8.532;2023-05-24T13:37:35;0.47;;;0.47;;
1180;SDS011;579;52.046;8.532;2023-05-24T13:40:01;0.50;;;0.50;;
1180;SDS011;579;52.046;8.532;2023-05-24T13:42:28;0.43;;;0.43;;
1180;SDS011;579;52.046;8.532;2023-05-24T13:50:08;0.30;;;0.30;;
1180;SDS011;579;52.046;8.532;2023-05-24T13:52:36;0.43;;;0.43;;
1180;SDS011;579;52.046;8.532;2023-05-24T13:55:02;0.50;;;0.50;;
1180;SDS011;579;52.046;8.532;2023-05-24T13:57:29;0.40;;;0.40;;
1180;SDS011;579;52.046;8.532;2023-05-24T13:59:57;0.70;;;0.70;;
1180;SDS011;579;52.046;8.532;2023-05-24T14:02:23;0.40;;;0.40;;
1180;SDS011;579;52.046;8.532;2023-05-24T14:04:50;0.40;;;0.40;;
1180;SDS011;579;52.046;8.532;2023-05-24T14:09:57;0.68;;;0.68;;
1180;SDS011;579;52.046;8.532;2023-05-24T14:12:23;0.90;;;0.90;;
1180;SDS011;579;52.046;8.532;2023-05-24T14:14:50;0.90;;;0.90;;
1180;SDS011;579;52.046;8.532;2023-05-24T14:17:16;0.80;;;0.80;;
1180;SDS011;579;52.046;8.532;2023-05-24T14:19:42;0.55;;;0.55;;
1180;SDS011;579;52.046;8.532;2023-05-24T14:22:08;0.65;;;0.65;;
1180;SDS011;579;52.046;8.532;2023-05-24T14:24:34;0.52;;;0.52;;
1180;SDS011;579;52.046;8.532;2023-05-24T14:27:01;0.85;;;0.85;;
1180;SDS011;579;52.046;8.532;2023-05-24T14:32:17;0.80;;;0.80;;
1180;SDS011;579;52.046;8.532;2023-05-24T14:34:43;0.60;;;0.60;;
1180;SDS011;579;52.046;8.532;2023-05-24T14:37:09;0.70;;;0.70;;
1180;SDS011;579;52.046;8.532;2023-05-24T14:39:36;0.60;;;0.60;;
1180;SDS011;579;52.046;8.532;2023-05-24T14:42:02;0.60;;;0.60;;
1180;SDS011;579;52.046;8.532;2023-05-24T14:44:29;0.68;;;0.68;;
1180;SDS011;579;52.046;8.532;2023-05-24T14:46:55;0.70;;;0.70;;
1180;SDS011;579;52.046;8.532;2023-05-24T14:54:27;0.70;;;0.70;;
1180;SDS011;579;52.046;8.532;2023-05-24T14:56:53;0.50;;;0.50;;
1180;SDS011;579;52.046;8.532;2023-05-24T14:59:19;0.50;;;0.50;;
1180;SDS011;579;52.046;8.532;2023-05-24T15:01:46;0.32;;;0.32;;
1180;SDS011;579;52.046;8.532;2023-05-24T15:04:12;0.50;;;0.50;;
1180;SDS011;579;52.046;8.532;2023-05-24T15:06:38;0.50;;;0.50;;
1180;SDS011;579;52.046;8.532;2023-05-24T15:09:05;0.73;;;0.73;;
1180;SDS011;579;52.046;8.532;2023-05-24T15:11:32;0.88;;;0.88;;
1180;SDS011;579;52.046;8.532;2023-05-24T15:19:03;0.45;;;0.45;;
1180;SDS011;579;52.046;8.532;2023-05-24T15:21:29;0.50;;;0.50;;
1180;SDS011;579;52.046;8.532;2023-05-24T15:23:55;2.30;;;2.30;;
1180;SDS011;579;52.046;8.532;2023-05-24T15:26:21;1.10;;;1.10;;
1180;SDS011;579;52.046;8.532;2023-05-24T15:28:47;1.15;;;1.15;;
1180;SDS011;579;52.046;8.532;2023-05-24T15:31:14;1.20;;;1.20;;
1180;SDS011;579;52.046;8.532;2023-05-24T15:33:40;0.85;;;0.85;;
1180;SDS011;579;52.046;8.532;2023-05-24T15:41:11;1.30;;;1.30;;
1180;SDS011;579;52.046;8.532;2023-05-24T15:43:38;1.65;;;1.65;;
1180;SDS011;579;52.046;8.532;2023-05-24T15:46:04;1.30;;;1.30;;
1180;SDS011;579;52.046;8.532;2023-05-24T15:48:30;1.52;;;1.52;;
1180;SDS011;579;52.046;8.532;2023-05-24T15:50:56;0.80;;;0.80;;
1180;SDS011;579;52.046;8.532;2023-05-24T15:53:24;0.68;;;0.68;;
1180;SDS011;579;52.046;8.532;2023-05-24T15:55:51;1.00;;;1.00;;
1180;SDS011;579;52.046;8.532;2023-05-24T16:02:24;1.50;;;1.50;;
1180;SDS011;579;52.046;8.532;2023-05-24T16:04:50;1.00;;;1.00;;
1180;SDS011;579;52.046;8.532;2023-05-24T16:07:17;1.30;;;1.30;;
1180;SDS011;579;52.046;8.532;2023-05-24T16:09:43;0.70;;;0.70;;
1180;SDS011;579;52.046;8.532;2023-05-24T16:12:10;1.10;;;1.10;;
1180;SDS011;579;52.046;8.532;2023-05-24T16:14:37;1.50;;;1.50;;
1180;SDS011;579;52.046;8.532;2023-05-24T16:17:03;1.15;;;1.15;;
1180;SDS011;579;52.046;8.532;2023-05-24T16:25:51;1.65;;;1.65;;
1180;SDS011;579;52.046;8.532;2023-05-24T16:28:17;1.10;;;1.10;;
1180;SDS011;579;52.046;8.532;2023-05-24T16:30:47;1.08;;;1.08;;
1180;SDS011;579;52.046;8.532;2023-05-24T16:33:16;1.55;;;1.55;;
1180;SDS011;579;52.046;8.532;2023-05-24T16:35:42;1.10;;;1.10;;
1180;SDS011;579;52.046;8.532;2023-05-24T16:38:08;1.50;;;1.50;;
1180;SDS011;579;52.046;8.532;2023-05-24T16:40:35;1.00;;;1.00;;
1180;SDS011;579;52.046;8.532;2023-05-24T16:47:46;1.33;;;1.33;;
1180;SDS011;579;52.046;8.532;2023-05-24T16:50:12;0.90;;;0.90;;
1180;SDS011;579;52.046;8.532;2023-05-24T16:52:39;1.20;;;1.20;;
1180;SDS011;579;52.046;8.532;2023-05-24T16:55:05;0.90;;;0.90;;
1180;SDS011;579;52.046;8.532;2023-05-24T16:57:33;1.00;;;1.00;;
1180;SDS011;579;52.046;8.532;2023-05-24T17:00:00;0.90;;;0.90;;
1180;SDS011;579;52.046;8.532;2023-05-24T17:02:26;1.15;;;1.15;;
1180;SDS011;579;52.046;8.532;2023-05-24T17:07:44;0.90;;;0.90;;
1180;SDS011;579;52.046;8.532;2023-05-24T17:10:10;1.25;;;1.25;;
1180;SDS011;579;52.046;8.532;2023-05-24T17:12:37;1.55;;;1.55;;
1180;SDS011;579;52.046;8.532;2023-05-24T17:15:03;1.10;;;1.10;;
1180;SDS011;579;52.046;8.532;2023-05-24T17:17:30;1.25;;;1.25;;
1180;SDS011;579;52.046;8.532;2023-05-24T17:19:57;1.30;;;1.30;;
1180;SDS011;579;52.046;8.532;2023-05-24T17:22:23;1.30;;;1.30;;
1180;SDS011;579;52.046;8.532;2023-05-24T17:29:27;1.20;;;1.20;;
1180;SDS011;579;52.046;8.532;2023-05-24T17:31:54;1.40;;;1.40;;
1180;SDS011;579;52.046;8.532;2023-05-24T17:34:21;1.55;;;1.55;;
1180;SDS011;579;52.046;8.532;2023-05-24T17:36:48;1.58;;;1.58;;
1180;SDS011;579;52.046;8.532;2023-05-24T17:39:14;1.02;;;1.02;;
1180;SDS011;579;52.046;8.532;2023-05-24T17:41:41;1.65;;;1.65;;
1180;SDS011;579;52.046;8.532;2023-05-24T17:44:08;1.40;;;1.40;;
1180;SDS011;579;52.046;8.532;2023-05-24T17:50:17;1.90;;;1.90;;
1180;SDS011;579;52.046;8.532;2023-05-24T17:52:43;1.40;;;1.40;;
1180;SDS011;579;52.046;8.532;2023-05-24T17:55:09;1.10;;;1.10;;
1180;SDS011;579;52.046;8.532;2023-05-24T17:57:36;1.60;;;1.60;;
1180;SDS011;579;52.046;8.532;2023-05-24T18:00:03;1.77;;;1.77;;
1180;SDS011;579;52.046;8.532;2023-05-24T18:02:31;1.80;;;1.80;;
1180;SDS011;579;52.046;8.532;2023-05-24T18:04:57;1.77;;;1.77;;
1180;SDS011;579;52.046;8.532;2023-05-24T18:10:16;1.45;;;1.45;;
1180;SDS011;579;52.046;8.532;2023-05-24T18:12:43;1.08;;;1.08;;
1180;SDS011;579;52.046;8.532;2023-05-24T18:15:09;1.70;;;1.70;;
1180;SDS011;579;52.046;8.532;2023-05-24T18:17:36;1.65;;;1.65;;
1180;SDS011;579;52.046;8.532;2023-05-24T18:20:02;1.67;;;1.67;;
1180;SDS011;579;52.046;8.532;2023-05-24T18:22:29;1.75;;;1.75;;
1180;SDS011;579;52.046;8.532;2023-05-24T18:24:55;1.90;;;1.90;;
1180;SDS011;579;52.046;8.532;2023-05-24T18:32:21;1.67;;;1.67;;
1180;SDS011;579;52.046;8.532;2023-05-24T18:34:47;1.92;;;1.92;;
1180;SDS011;579;52.046;8.532;2023-05-24T18:37:13;1.75;;;1.75;;
1180;SDS011;579;52.046;8.532;2023-05-24T18:39:40;1.33;;;1.33;;
1180;SDS011;579;52.046;8.532;2023-05-24T18:42:07;1.75;;;1.75;;
1180;SDS011;579;52.046;8.532;2023-05-24T18:44:33;1.83;;;1.83;;
1180;SDS011;579;52.046;8.532;2023-05-24T18:47:01;1.70;;;1.70;;
1180;SDS011;579;52.046;8.532;2023-05-24T18:52:17;1.60;;;1.60;;
1180;SDS011;579;52.046;8.532;2023-05-24T18:54:43;1.10;;;1.10;;
1180;SDS011;579;52.046;8.532;2023-05-24T18:57:09;1.45;;;1.45;;
1180;SDS011;579;52.046;8.532;2023-05-24T18:59:36;1.52;;;1.52;;
1180;SDS011;579;52.046;8.532;2023-05-24T19:02:02;1.20;;;1.20;;
1180;SDS011;579;52.046;8.532;2023-05-24T19:04:30;0.10;;;0.10;;
1180;SDS011;579;52.046;8.532;2023-05-24T19:06:56;0.35;;;0.35;;
1180;SDS011;579;52.046;8.532;2023-05-24T19:12:14;0.10;;;0.10;;
1180;SDS011;579;52.046;8.532;2023-05-24T19:14:41;0.10;;;0.10;;